Time;durP1;ratioP1;P1;durP2;ratioP2;P2;SDS_P1;SDS_P2;PMS_P1;PMS_P2;Temp;Humidity;BMP_temperature;BMP_pressure;BME280_temperature;BME280_humidity;BME280_pressure;Samples;Min_cycle;Max_cycle;Signal;HPM_P1;HPM_P2
2022/09/08 00:00:49;;;;;;;19.98;10.98;;;;;;;;;;5016360;28;20049;-80
2022/09/08 00:03:16;;;;;;;16.75;11.55;;;;;;;;;;5016824;28;20514;-80
2022/09/08 00:05:56;;;;;;;21.42;11.70;;;;;;;;;;5017842;28;20100;-80
2022/09/08 00:08:23;;;;;;;19.30;11.40;;;;;;;;;;5017186;28;20056;-80
2022/09/08 00:10:53;;;;;;;17.90;11.27;;;;;;;;;;5016800;28;20050;-80
2022/09/08 00:13:20;;;;;;;19.45;11.25;;;;;;;;;;5016200;28;20054;-81
2022/09/08 00:15:47;;;;;;;22.30;12.40;;;;;;;;;;5016832;28;20045;-80
2022/09/08 00:18:13;;;;;;;20.08;11.43;;;;;;;;;;5014216;28;20053;-78
2022/09/08 00:20:40;;;;;;;22.73;12.10;;;;;;;;;;5013499;28;20209;-80
2022/09/08 00:23:07;;;;;;;20.30;12.05;;;;;;;;;;5011274;28;20046;-80
2022/09/08 00:25:33;;;;;;;20.65;12.00;;;;;;;;;;5011128;28;20050;-78
2022/09/08 00:27:59;;;;;;;20.98;11.95;;;;;;;;;;5011350;28;20541;-79
2022/09/08 00:30:26;;;;;;;20.02;11.98;;;;;;;;;;4997230;28;20058;-82
2022/09/08 00:32:52;;;;;;;21.40;12.27;;;;;;;;;;5031043;28;20042;-80
2022/09/08 00:35:19;;;;;;;22.60;12.07;;;;;;;;;;5021310;28;20064;-79
2022/09/08 00:37:48;;;;;;;21.58;12.15;;;;;;;;;;5013838;28;20089;-80
2022/09/08 00:40:15;;;;;;;23.85;12.15;;;;;;;;;;4995307;28;20144;-79
2022/09/08 00:42:42;;;;;;;16.88;11.70;;;;;;;;;;5014040;28;20056;-80
2022/09/08 00:45:09;;;;;;;18.30;10.70;;;;;;;;;;5015742;28;20042;-81
2022/09/08 00:47:46;;;;;;;17.70;11.32;;;;;;;;;;5001942;28;20065;-81
2022/09/08 00:50:17;;;;;;;15.63;11.20;;;;;;;;;;5018848;28;20050;-79
2022/09/08 00:53:13;;;;;;;21.88;11.68;;;;;;;;;;5014507;28;20061;-79
2022/09/08 00:55:39;;;;;;;18.60;11.65;;;;;;;;;;4995135;28;20050;-80
2022/09/08 00:58:06;;;;;;;18.25;11.23;;;;;;;;;;5011234;28;20470;-78
2022/09/08 01:00:37;;;;;;;24.10;11.95;;;;;;;;;;4995049;28;20050;-77
2022/09/08 01:03:05;;;;;;;22.65;11.55;;;;;;;;;;5010951;28;20045;-79
2022/09/08 01:05:38;;;;;;;17.00;10.95;;;;;;;;;;5012935;28;20183;-79
2022/09/08 01:13:44;;;;;;;19.85;10.98;;;;;;;;;;5012974;28;20441;-79
2022/09/08 01:16:11;;;;;;;16.58;10.40;;;;;;;;;;5014463;28;20058;-79
2022/09/08 01:18:38;;;;;;;15.60;10.15;;;;;;;;;;5013242;28;20054;-79
2022/09/08 01:21:28;;;;;;;16.10;10.68;;;;;;;;;;5015376;28;20049;-79
2022/09/08 01:24:13;;;;;;;20.38;10.80;;;;;;;;;;5016743;28;20136;-80
2022/09/08 01:26:58;;;;;;;27.02;12.00;;;;;;;;;;5019038;28;20046;-80
2022/09/08 01:29:25;;;;;;;19.27;11.40;;;;;;;;;;5031577;28;20113;-80
2022/09/08 01:31:52;;;;;;;20.73;10.80;;;;;;;;;;5032366;28;20054;-80
2022/09/08 01:34:19;;;;;;;19.40;10.15;;;;;;;;;;5001205;28;20045;-79
2022/09/08 01:36:45;;;;;;;15.45;9.95;;;;;;;;;;5016272;28;20068;-80
2022/09/08 01:39:12;;;;;;;18.38;10.23;;;;;;;;;;5015662;28;20556;-79
2022/09/08 01:41:38;;;;;;;15.40;10.23;;;;;;;;;;4998732;28;20471;-79
2022/09/08 01:44:04;;;;;;;15.27;9.80;;;;;;;;;;5017106;28;20042;-80
2022/09/08 01:46:31;;;;;;;16.90;10.32;;;;;;;;;;5019983;28;20112;-80
2022/09/08 01:48:57;;;;;;;16.77;10.15;;;;;;;;;;5021146;28;20054;-79
2022/09/08 01:51:25;;;;;;;16.15;10.25;;;;;;;;;;5021586;28;20048;-80
2022/09/08 01:53:51;;;;;;;17.15;10.43;;;;;;;;;;5019466;28;20050;-80
2022/09/08 01:56:18;;;;;;;16.30;10.55;;;;;;;;;;5002644;28;20049;-79
2022/09/08 01:58:47;;;;;;;17.88;10.10;;;;;;;;;;5017926;28;20049;-80
2022/09/08 02:01:14;;;;;;;16.83;9.98;;;;;;;;;;5017059;28;20046;-79
2022/09/08 02:03:40;;;;;;;16.30;10.07;;;;;;;;;;5016944;28;20054;-80
2022/09/08 02:06:07;;;;;;;18.52;10.20;;;;;;;;;;5017517;28;20160;-79
2022/09/08 02:08:34;;;;;;;15.68;10.00;;;;;;;;;;5017110;28;20056;-80
2022/09/08 02:11:00;;;;;;;16.73;10.13;;;;;;;;;;5017482;28;20107;-80
2022/09/08 02:13:27;;;;;;;15.90;9.82;;;;;;;;;;5017007;28;20133;-77
2022/09/08 02:16:01;;;;;;;15.25;9.50;;;;;;;;;;5016466;28;20414;-79
2022/09/08 02:18:29;;;;;;;14.18;8.73;;;;;;;;;;5016370;28;20050;-78
2022/09/08 02:21:07;;;;;;;16.92;9.30;;;;;;;;;;5017717;28;20054;-79
2022/09/08 02:23:37;;;;;;;18.10;8.73;;;;;;;;;;5018237;28;20042;-80
2022/09/08 02:26:04;;;;;;;15.32;8.73;;;;;;;;;;5018616;28;20042;-80
2022/09/08 02:28:30;;;;;;;12.98;8.55;;;;;;;;;;5017005;28;20050;-79
2022/09/08 02:30:58;;;;;;;16.70;8.95;;;;;;;;;;5017824;28;20178;-79
2022/09/08 02:33:26;;;;;;;14.55;8.80;;;;;;;;;;5019691;28;20104;-80
2022/09/08 02:35:53;;;;;;;17.65;8.70;;;;;;;;;;5021214;28;20061;-80
2022/09/08 02:38:20;;;;;;;14.57;8.90;;;;;;;;;;5031246;28;20113;-80
2022/09/08 02:40:46;;;;;;;12.68;8.50;;;;;;;;;;5007362;28;20053;-79
2022/09/08 02:43:13;;;;;;;15.05;8.80;;;;;;;;;;4955159;28;1318138;-79
2022/09/08 02:45:39;;;;;;;15.20;8.68;;;;;;;;;;5019021;28;20178;-80
2022/09/08 02:48:06;;;;;;;13.45;8.30;;;;;;;;;;5019081;28;20053;-79
2022/09/08 02:50:34;;;;;;;13.30;8.25;;;;;;;;;;5000172;28;20073;-78
2022/09/08 02:53:00;;;;;;;14.38;8.20;;;;;;;;;;5017891;28;20057;-79
2022/09/08 02:55:27;;;;;;;15.60;9.52;;;;;;;;;;5016138;28;20065;-78
2022/09/08 02:57:53;;;;;;;17.23;9.68;;;;;;;;;;5016510;28;20064;-78
2022/09/08 03:00:20;;;;;;;16.00;9.43;;;;;;;;;;5015821;28;20062;-79
2022/09/08 03:02:47;;;;;;;14.38;8.43;;;;;;;;;;5015492;28;20049;-79
2022/09/08 03:05:14;;;;;;;16.15;8.70;;;;;;;;;;5016989;28;20053;-78
2022/09/08 03:07:40;;;;;;;13.98;9.38;;;;;;;;;;5017213;28;20045;-78
2022/09/08 03:10:07;;;;;;;18.10;9.77;;;;;;;;;;5022081;28;20049;-80
2022/09/08 03:12:36;;;;;;;13.23;8.57;;;;;;;;;;5026608;28;20112;-80
2022/09/08 03:15:02;;;;;;;16.23;9.05;;;;;;;;;;5022604;28;20054;-78
2022/09/08 03:17:30;;;;;;;15.85;8.73;;;;;;;;;;5021831;28;20057;-79
2022/09/08 03:19:56;;;;;;;14.45;8.70;;;;;;;;;;5018892;28;20114;-79
2022/09/08 03:22:22;;;;;;;12.85;8.63;;;;;;;;;;5017889;28;20060;-80
2022/09/08 03:24:49;;;;;;;16.65;8.75;;;;;;;;;;5017163;28;20041;-80
2022/09/08 03:27:15;;;;;;;17.80;9.27;;;;;;;;;;5018337;28;20124;-80
2022/09/08 03:29:41;;;;;;;14.27;8.98;;;;;;;;;;5017506;28;20050;-80
2022/09/08 03:32:09;;;;;;;16.60;9.52;;;;;;;;;;5017955;28;20046;-80
2022/09/08 03:34:37;;;;;;;17.10;9.15;;;;;;;;;;5017492;28;20064;-79
2022/09/08 03:37:03;;;;;;;16.60;9.30;;;;;;;;;;5018857;28;20518;-80
2022/09/08 03:39:29;;;;;;;17.15;9.02;;;;;;;;;;5018115;28;20053;-81
2022/09/08 03:41:56;;;;;;;16.50;9.30;;;;;;;;;;5018564;28;20988;-79
2022/09/08 03:44:22;;;;;;;13.75;9.98;;;;;;;;;;4999856;28;20068;-82
2022/09/08 03:46:49;;;;;;;16.60;9.45;;;;;;;;;;4997789;28;20109;-80
2022/09/08 03:49:15;;;;;;;16.55;10.70;;;;;;;;;;5005758;28;20049;-79
2022/09/08 03:51:41;;;;;;;17.27;9.48;;;;;;;;;;5019074;28;20054;-81
2022/09/08 03:56:59;;;;;;;16.50;10.18;;;;;;;;;;5017781;28;20071;-80
2022/09/08 03:59:25;;;;;;;18.88;10.15;;;;;;;;;;4999949;28;20052;-80
2022/09/08 04:01:53;;;;;;;18.58;9.30;;;;;;;;;;5017323;28;20513;-80
2022/09/08 04:04:22;;;;;;;18.27;9.68;;;;;;;;;;5018540;28;20104;-79
2022/09/08 04:06:49;;;;;;;17.88;9.45;;;;;;;;;;5018920;28;20114;-79
2022/09/08 04:09:16;;;;;;;20.00;9.82;;;;;;;;;;5018120;28;20085;-80
2022/09/08 04:11:42;;;;;;;16.00;10.00;;;;;;;;;;5020370;28;20065;-79
2022/09/08 04:14:09;;;;;;;21.02;10.50;;;;;;;;;;5019181;28;20105;-79
2022/09/08 04:16:36;;;;;;;18.45;9.93;;;;;;;;;;5001648;28;20058;-79
2022/09/08 04:19:03;;;;;;;19.52;9.77;;;;;;;;;;5020055;28;20053;-80
2022/09/08 04:21:29;;;;;;;14.90;9.95;;;;;;;;;;5020636;28;20046;-80
2022/09/08 04:23:55;;;;;;;18.92;9.02;;;;;;;;;;5016883;28;20441;-79
2022/09/08 04:26:22;;;;;;;15.68;7.60;;;;;;;;;;5017089;28;20104;-79
2022/09/08 04:28:48;;;;;;;14.43;6.65;;;;;;;;;;5018543;28;20397;-80
2022/09/08 04:31:17;;;;;;;10.48;5.78;;;;;;;;;;5019079;28;20050;-79
2022/09/08 04:33:43;;;;;;;8.07;5.00;;;;;;;;;;5017581;28;20054;-78
2022/09/08 04:36:17;;;;;;;37.17;6.50;;;;;;;;;;4999877;28;20085;-79
2022/09/08 04:38:53;;;;;;;22.77;5.10;;;;;;;;;;5013202;28;20326;-79
2022/09/08 04:41:19;;;;;;;28.58;5.60;;;;;;;;;;5015286;28;20058;-79
2022/09/08 04:43:46;;;;;;;46.05;5.43;;;;;;;;;;5021436;28;20064;-79
2022/09/08 04:46:15;;;;;;;16.20;4.88;;;;;;;;;;5029203;28;20054;-80
2022/09/08 04:48:43;;;;;;;10.35;4.78;;;;;;;;;;5016965;28;20049;-79
2022/09/08 04:51:10;;;;;;;26.15;5.38;;;;;;;;;;5023870;28;20038;-80
2022/09/08 04:53:37;;;;;;;17.40;4.93;;;;;;;;;;5029738;28;20060;-78
2022/09/08 04:56:04;;;;;;;11.75;4.90;;;;;;;;;;5024943;28;20109;-79
2022/09/08 04:58:32;;;;;;;18.05;5.03;;;;;;;;;;5013560;28;20054;-79
2022/09/08 05:01:09;;;;;;;17.48;5.65;;;;;;;;;;5014549;28;20072;-78
2022/09/08 05:03:35;;;;;;;18.02;5.80;;;;;;;;;;4998641;28;20049;-79
2022/09/08 05:06:04;;;;;;;12.77;4.70;;;;;;;;;;5014444;28;20056;-79
2022/09/08 05:08:31;;;;;;;10.57;5.18;;;;;;;;;;5014456;28;20434;-77
2022/09/08 05:10:59;;;;;;;14.10;4.80;;;;;;;;;;5010187;28;20088;-77
2022/09/08 05:13:25;;;;;;;17.48;5.25;;;;;;;;;;5009212;28;20136;-77
2022/09/08 05:15:52;;;;;;;10.85;4.93;;;;;;;;;;5013056;28;20445;-78
2022/09/08 05:18:18;;;;;;;13.23;5.03;;;;;;;;;;5012786;28;20049;-78
2022/09/08 05:20:52;;;;;;;17.42;5.05;;;;;;;;;;5013780;28;20046;-78
2022/09/08 05:23:21;;;;;;;21.73;5.25;;;;;;;;;;5013839;28;20050;-78
2022/09/08 05:25:59;;;;;;;13.90;5.30;;;;;;;;;;5012831;28;20045;-78
2022/09/08 05:28:25;;;;;;;11.73;5.30;;;;;;;;;;5013879;28;20050;-78
2022/09/08 05:30:52;;;;;;;13.27;5.32;;;;;;;;;;5014775;28;20494;-78
2022/09/08 05:33:18;;;;;;;11.20;4.50;;;;;;;;;;5013837;28;20076;-79
2022/09/08 05:35:45;;;;;;;9.00;4.55;;;;;;;;;;5013585;28;20495;-78
2022/09/08 05:38:11;;;;;;;12.82;5.80;;;;;;;;;;5012682;28;20076;-78
2022/09/08 05:40:37;;;;;;;11.55;5.30;;;;;;;;;;5012817;28;20548;-79
2022/09/08 05:43:04;;;;;;;14.15;5.95;;;;;;;;;;5012383;28;20425;-78
2022/09/08 05:45:30;;;;;;;10.05;6.40;;;;;;;;;;4996361;28;20061;-78
2022/09/08 05:47:57;;;;;;;14.57;6.20;;;;;;;;;;5014297;28;20046;-78
2022/09/08 05:50:23;;;;;;;11.90;6.70;;;;;;;;;;5017730;28;20053;-78
2022/09/08 05:52:50;;;;;;;16.17;7.05;;;;;;;;;;5018041;28;20081;-79
2022/09/08 05:55:17;;;;;;;15.35;6.78;;;;;;;;;;5017133;28;20069;-78
2022/09/08 05:57:43;;;;;;;17.73;6.97;;;;;;;;;;5013709;28;20446;-78
2022/09/08 06:00:10;;;;;;;15.68;7.00;;;;;;;;;;5010217;28;20049;-77
2022/09/08 06:02:36;;;;;;;12.95;6.43;;;;;;;;;;5010827;28;20571;-79
2022/09/08 06:05:03;;;;;;;23.13;7.57;;;;;;;;;;5011041;28;20054;-78
2022/09/08 06:07:31;;;;;;;12.48;6.90;;;;;;;;;;5012375;28;20526;-77
2022/09/08 06:09:57;;;;;;;18.17;7.85;;;;;;;;;;5010983;28;20065;-79
2022/09/08 06:12:23;;;;;;;14.30;7.18;;;;;;;;;;5013216;28;20050;-79
2022/09/08 06:14:50;;;;;;;16.70;6.95;;;;;;;;;;5012259;28;20053;-79
2022/09/08 06:17:16;;;;;;;20.90;7.05;;;;;;;;;;5009980;28;20054;-79
2022/09/08 06:19:43;;;;;;;12.68;6.63;;;;;;;;;;5015574;28;20050;-80
2022/09/08 06:22:09;;;;;;;14.90;6.90;;;;;;;;;;5015559;28;20065;-80
2022/09/08 06:24:35;;;;;;;13.63;7.25;;;;;;;;;;5014219;28;20081;-79
2022/09/08 06:27:07;;;;;;;20.33;7.90;;;;;;;;;;4995923;28;20073;-78
2022/09/08 06:29:48;;;;;;;19.73;8.93;;;;;;;;;;5013176;28;20046;-79
2022/09/08 06:32:26;;;;;;;18.70;9.88;;;;;;;;;;5016426;28;20045;-80
2022/09/08 06:35:14;;;;;;;20.50;10.30;;;;;;;;;;5021733;28;20058;-78
2022/09/08 06:37:50;;;;;;;18.70;11.07;;;;;;;;;;5019756;28;20053;-79
2022/09/08 06:40:16;;;;;;;;;;;;;;;;;;5017620;28;20064;-80
2022/09/08 06:42:55;;;;;;;16.58;9.52;;;;;;;;;;5018594;28;20556;-80
2022/09/08 06:45:23;;;;;;;21.35;10.48;;;;;;;;;;5017770;28;20385;-80
2022/09/08 06:47:55;;;;;;;24.65;11.23;;;;;;;;;;5017671;28;20072;-80
2022/09/08 06:50:21;;;;;;;19.83;9.85;;;;;;;;;;5021571;28;20046;-79
2022/09/08 06:52:49;;;;;;;21.15;8.60;;;;;;;;;;5035285;28;20038;-80
2022/09/08 06:55:35;;;;;;;21.55;8.68;;;;;;;;;;5018379;28;20046;-80
2022/09/08 06:58:08;;;;;;;19.92;9.90;;;;;;;;;;5016386;28;20076;-80
2022/09/08 07:00:55;;;;;;;15.32;10.00;;;;;;;;;;5019083;28;20046;-80
2022/09/08 07:03:33;;;;;;;15.38;9.00;;;;;;;;;;5018162;28;20061;-79
2022/09/08 07:06:07;;;;;;;22.45;10.95;;;;;;;;;;5020382;28;20046;-79
2022/09/08 07:08:36;;;;;;;22.65;10.20;;;;;;;;;;5018432;28;20056;-80
2022/09/08 07:11:10;;;;;;;42.33;14.75;;;;;;;;;;5018424;28;20060;-80
2022/09/08 07:14:00;;;;;;;36.65;14.13;;;;;;;;;;5017940;28;20053;-79
2022/09/08 07:16:40;;;;;;;20.92;12.13;;;;;;;;;;5018150;28;20585;-79
2022/09/08 07:19:28;;;;;;;20.30;11.65;;;;;;;;;;5017666;28;20077;-80
2022/09/08 07:22:25;;;;;;;21.35;11.98;;;;;;;;;;5020385;28;20125;-80
2022/09/08 07:24:53;;;;;;;20.70;11.60;;;;;;;;;;5017215;28;20046;-79
2022/09/08 07:27:19;;;;;;;19.30;10.95;;;;;;;;;;5017581;28;20112;-79
2022/09/08 07:29:47;;;;;;;26.60;11.20;;;;;;;;;;5015586;28;20064;-81
2022/09/08 07:32:27;;;;;;;35.47;11.80;;;;;;;;;;5017493;28;20061;-79
2022/09/08 07:34:55;;;;;;;17.02;8.00;;;;;;;;;;5017934;28;20050;-80
2022/09/08 07:37:22;;;;;;;14.43;8.02;;;;;;;;;;5016378;28;20058;-79
2022/09/08 07:40:00;;;;;;;15.27;7.60;;;;;;;;;;5016397;28;20081;-79
2022/09/08 07:42:27;;;;;;;10.00;5.72;;;;;;;;;;5019249;28;20061;-79
2022/09/08 07:45:00;;;;;;;6.97;4.15;;;;;;;;;;5018174;28;20041;-80
2022/09/08 07:47:46;;;;;;;10.48;4.45;;;;;;;;;;5018881;28;20049;-80
2022/09/08 07:50:22;;;;;;;7.07;4.47;;;;;;;;;;5019465;28;20053;-80
2022/09/08 07:52:49;;;;;;;;;;;;;;;;;;5017913;28;20430;-80
2022/09/08 07:55:27;;;;;;;8.57;4.30;;;;;;;;;;5010819;28;19925;-80
2022/09/08 07:58:08;;;;;;;7.78;4.10;;;;;;;;;;5016397;28;20144;-80
2022/09/08 08:00:46;;;;;;;9.10;4.53;;;;;;;;;;5018613;28;20054;-80
2022/09/08 08:03:33;;;;;;;14.45;4.97;;;;;;;;;;5017315;28;20085;-80
2022/09/08 08:06:10;;;;;;;12.73;5.15;;;;;;;;;;5019544;28;20065;-80
2022/09/08 08:08:58;;;;;;;13.55;5.43;;;;;;;;;;5018985;28;20054;-80
2022/09/08 08:11:24;;;;;;;13.07;5.20;;;;;;;;;;5020583;28;20056;-81
2022/09/08 08:14:02;;;;;;;19.45;5.93;;;;;;;;;;5005191;28;20058;-81
2022/09/08 08:16:41;;;;;;;11.30;5.95;;;;;;;;;;5034107;28;20106;-81
2022/09/08 08:19:19;;;;;;;13.43;5.40;;;;;;;;;;5032630;28;20081;-80
2022/09/08 08:22:08;;;;;;;8.38;5.38;;;;;;;;;;5022423;28;20405;-79
2022/09/08 08:24:41;;;;;;;10.43;5.88;;;;;;;;;;5022687;28;20057;-81
2022/09/08 08:27:19;;;;;;;12.40;6.38;;;;;;;;;;5023675;28;20050;-80
2022/09/08 08:30:03;;;;;;;10.80;6.53;;;;;;;;;;5025313;28;20060;-80
2022/09/08 08:32:32;;;;;;;8.25;5.75;;;;;;;;;;5025689;28;20133;-80
2022/09/08 08:35:19;;;;;;;20.45;6.40;;;;;;;;;;5025267;28;20054;-80
2022/09/08 08:37:48;;;;;;;11.45;6.43;;;;;;;;;;5024798;28;20050;-80
2022/09/08 08:40:25;;;;;;;9.75;6.20;;;;;;;;;;5024673;28;20509;-80
2022/09/08 08:43:01;;;;;;;10.27;5.55;;;;;;;;;;5023855;28;20064;-80
2022/09/08 08:45:46;;;;;;;14.63;5.22;;;;;;;;;;5021306;28;20053;-81
2022/09/08 08:48:13;;;;;;;9.88;5.38;;;;;;;;;;5017608;28;20428;-80
2022/09/08 08:50:52;;;;;;;8.98;4.50;;;;;;;;;;5017990;28;20046;-81
2022/09/08 08:53:47;;;;;;;6.97;4.00;;;;;;;;;;5019453;28;20096;-81
2022/09/08 08:56:27;;;;;;;5.20;3.28;;;;;;;;;;5021296;28;20106;-79
2022/09/08 08:59:01;;;;;;;6.78;3.92;;;;;;;;;;5030116;28;20501;-79
2022/09/08 09:01:27;;;;;;;7.45;3.70;;;;;;;;;;5018479;28;20049;-79
2022/09/08 09:03:57;;;;;;;10.45;4.07;;;;;;;;;;5016853;28;20041;-80
2022/09/08 09:06:27;;;;;;;5.18;3.05;;;;;;;;;;5017638;28;20049;-81
2022/09/08 09:08:56;;;;;;;4.40;2.75;;;;;;;;;;5015396;28;20049;-79
2022/09/08 09:11:22;;;;;;;5.13;3.05;;;;;;;;;;5015162;28;20723;-78
2022/09/08 09:13:52;;;;;;;6.68;2.65;;;;;;;;;;5014475;28;20516;-80
2022/09/08 09:16:37;;;;;;;5.47;2.80;;;;;;;;;;5013485;28;20056;-81
2022/09/08 09:19:11;;;;;;;7.87;2.80;;;;;;;;;;5014967;28;20088;-80
2022/09/08 09:21:37;;;;;;;6.20;2.33;;;;;;;;;;5014821;28;20057;-79
2022/09/08 09:24:13;;;;;;;8.30;2.58;;;;;;;;;;5012404;28;20046;-79
2022/09/08 09:26:42;;;;;;;4.85;2.53;;;;;;;;;;5015709;28;20053;-79
2022/09/08 09:29:22;;;;;;;5.80;2.28;;;;;;;;;;5015093;28;20057;-79
2022/09/08 09:31:48;;;;;;;4.32;2.10;;;;;;;;;;5014835;28;20042;-79
2022/09/08 09:34:29;;;;;;;4.20;1.83;;;;;;;;;;5013730;28;20399;-79
2022/09/08 09:37:14;;;;;;;3.58;2.08;;;;;;;;;;5016781;28;20054;-79
2022/09/08 09:40:19;;;;;;;3.67;2.38;;;;;;;;;;5014466;28;20478;-80
2022/09/08 09:42:46;;;;;;;4.80;2.10;;;;;;;;;;4972202;28;20055;-81
2022/09/08 09:45:18;;;;;;;5.28;2.47;;;;;;;;;;4972653;28;20054;-79
2022/09/08 09:47:55;;;;;;;5.65;2.90;;;;;;;;;;4993888;28;20069;-79
2022/09/08 09:50:21;;;;;;;7.53;3.15;;;;;;;;;;5014884;28;20530;-79
2022/09/08 09:53:06;;;;;;;6.30;3.20;;;;;;;;;;5014745;28;20048;-78
2022/09/08 09:55:52;;;;;;;7.82;3.45;;;;;;;;;;5015044;28;20123;-79
2022/09/08 09:58:28;;;;;;;5.22;2.88;;;;;;;;;;5013762;28;20069;-79
2022/09/08 10:01:01;;;;;;;8.10;3.33;;;;;;;;;;5014742;28;20046;-79
2022/09/08 10:03:46;;;;;;;7.47;3.10;;;;;;;;;;5015819;28;20058;-78
2022/09/08 10:06:26;;;;;;;9.60;3.40;;;;;;;;;;5016166;28;20050;-80
2022/09/08 10:09:11;;;;;;;8.85;3.40;;;;;;;;;;5020835;28;20208;-79
2022/09/08 10:11:37;;;;;;;4.35;3.45;;;;;;;;;;5021773;28;20045;-79
2022/09/08 10:14:22;;;;;;;7.50;3.50;;;;;;;;;;5021275;28;20510;-79
2022/09/08 10:17:15;;;;;;;8.48;4.00;;;;;;;;;;5020609;28;20109;-80
2022/09/08 10:19:44;;;;;;;8.60;4.13;;;;;;;;;;4997927;28;20069;-79
2022/09/08 10:22:13;;;;;;;8.32;4.57;;;;;;;;;;5014905;28;20425;-79
2022/09/08 10:24:58;;;;;;;8.85;4.95;;;;;;;;;;5013896;28;20084;-79
2022/09/08 10:27:43;;;;;;;8.55;4.60;;;;;;;;;;5015140;28;20050;-76
2022/09/08 10:30:20;;;;;;;7.13;4.30;;;;;;;;;;4997933;28;20422;-79
2022/09/08 10:33:05;;;;;;;6.35;3.92;;;;;;;;;;5015722;28;20053;-79
2022/09/08 10:35:43;;;;;;;5.50;3.58;;;;;;;;;;5016851;28;20445;-80
2022/09/08 10:38:22;;;;;;;6.00;3.80;;;;;;;;;;5015989;28;20058;-80
2022/09/08 10:40:55;;;;;;;6.28;3.63;;;;;;;;;;5015185;28;20129;-78
2022/09/08 10:43:34;;;;;;;7.35;3.90;;;;;;;;;;5014512;28;20053;-79
2022/09/08 10:46:10;;;;;;;7.88;3.90;;;;;;;;;;5015319;28;20049;-80
2022/09/08 10:48:55;;;;;;;5.00;3.92;;;;;;;;;;5020027;28;20107;-79
2022/09/08 10:51:38;;;;;;;5.83;3.47;;;;;;;;;;5019760;28;20513;-80
2022/09/08 10:54:20;;;;;;;6.40;3.60;;;;;;;;;;5016926;28;20060;-80
2022/09/08 10:56:48;;;;;;;8.15;3.90;;;;;;;;;;4996963;28;20250;-80
2022/09/08 10:59:26;;;;;;;7.90;3.63;;;;;;;;;;5001482;28;20061;-80
2022/09/08 11:02:30;;;;;;;4.85;3.20;;;;;;;;;;5003169;28;20058;-79
2022/09/08 11:05:15;;;;;;;5.03;2.70;;;;;;;;;;5008775;28;20065;-80
2022/09/08 11:08:17;;;;;;;4.63;2.20;;;;;;;;;;5000909;28;20060;-78
2022/09/08 11:10:59;;;;;;;2.22;1.40;;;;;;;;;;4898600;29;20055;-80
2022/09/08 11:13:33;;;;;;;2.92;1.23;;;;;;;;;;4987708;28;20054;-80
2022/09/08 11:15:59;;;;;;;3.13;1.70;;;;;;;;;;4981121;28;20050;-80
2022/09/08 11:18:36;;;;;;;3.40;1.52;;;;;;;;;;4997336;28;20054;-80
2022/09/08 11:21:03;;;;;;;4.18;1.80;;;;;;;;;;5000887;28;20086;-81
2022/09/08 11:23:30;;;;;;;3.90;2.10;;;;;;;;;;5001926;28;20047;-82
2022/09/08 11:26:15;;;;;;;6.85;2.40;;;;;;;;;;5001787;28;20061;-80
2022/09/08 11:28:47;;;;;;;3.67;1.85;;;;;;;;;;5001491;28;20506;-81
2022/09/08 11:31:32;;;;;;;6.68;2.33;;;;;;;;;;4985059;28;20048;-81
2022/09/08 11:34:04;;;;;;;3.38;2.22;;;;;;;;;;5001452;28;20050;-80
2022/09/08 11:37:00;;;;;;;8.30;2.28;;;;;;;;;;4984625;28;20050;-81
2022/09/08 11:39:27;;;;;;;6.18;2.35;;;;;;;;;;4927364;28;20063;-81
2022/09/08 11:42:00;;;;;;;3.00;2.10;;;;;;;;;;5016097;28;20054;-81
2022/09/08 11:44:29;;;;;;;4.47;2.28;;;;;;;;;;5004967;28;20450;-80
2022/09/08 11:47:05;;;;;;;5.35;2.22;;;;;;;;;;4997485;28;20065;-80
2022/09/08 11:49:31;;;;;;;4.65;2.20;;;;;;;;;;4996266;28;20046;-78
2022/09/08 11:52:36;;;;;;;3.83;2.30;;;;;;;;;;4998475;28;20043;-79
2022/09/08 11:55:15;;;;;;;4.35;2.20;;;;;;;;;;5007198;28;20506;-79
2022/09/08 11:57:42;;;;;;;2.97;1.95;;;;;;;;;;5019280;28;20057;-79
2022/09/08 12:00:24;;;;;;;3.17;1.90;;;;;;;;;;5017899;28;20058;-81
2022/09/08 12:03:00;;;;;;;3.50;2.13;;;;;;;;;;5019257;28;20223;-80
2022/09/08 12:05:26;;;;;;;;;;;;;;;;;;5019807;28;20510;-80
2022/09/08 12:08:35;;;;;;;3.65;2.00;;;;;;;;;;5018979;28;19922;-80
2022/09/08 12:11:04;;;;;;;7.47;2.13;;;;;;;;;;5019479;28;20057;-80
2022/09/08 12:13:46;;;;;;;2.53;2.10;;;;;;;;;;5018206;28;20499;-81
2022/09/08 12:16:12;;;;;;;4.28;2.08;;;;;;;;;;5019385;28;20053;-81
2022/09/08 12:18:57;;;;;;;4.35;1.40;;;;;;;;;;5018837;28;20137;-81
2022/09/08 12:21:24;;;;;;;3.75;1.95;;;;;;;;;;5016743;28;20054;-79
2022/09/08 12:23:58;;;;;;;3.10;1.67;;;;;;;;;;5013923;28;20046;-80
2022/09/08 12:26:25;;;;;;;2.58;1.90;;;;;;;;;;5014020;28;20053;-79
2022/09/08 12:29:07;;;;;;;3.47;1.80;;;;;;;;;;5012511;28;20597;-80
2022/09/08 12:31:45;;;;;;;2.65;1.48;;;;;;;;;;5013737;28;20058;-81
2022/09/08 12:34:24;;;;;;;4.10;1.70;;;;;;;;;;5019761;28;20053;-81
2022/09/08 12:36:53;;;;;;;2.20;1.45;;;;;;;;;;5019579;28;20049;-81
2022/09/08 12:39:28;;;;;;;4.22;1.60;;;;;;;;;;5018509;28;20066;-79
2022/09/08 12:42:00;;;;;;;1.30;1.10;;;;;;;;;;5016512;28;20521;-79
2022/09/08 12:44:45;;;;;;;1.63;1.10;;;;;;;;;;5016484;28;20065;-78
2022/09/08 12:47:15;;;;;;;2.20;1.13;;;;;;;;;;5014773;28;20065;-79
2022/09/08 12:49:44;;;;;;;2.08;1.23;;;;;;;;;;5015236;28;20058;-79
2022/09/08 12:52:29;;;;;;;3.22;1.30;;;;;;;;;;5016819;28;20212;-78
2022/09/08 12:55:12;;;;;;;3.33;1.20;;;;;;;;;;5015778;28;20429;-79
2022/09/08 12:57:57;;;;;;;2.97;1.08;;;;;;;;;;5016635;28;20060;-79
2022/09/08 13:00:36;;;;;;;5.07;1.40;;;;;;;;;;5000507;28;20165;-81
2022/09/08 13:03:08;;;;;;;4.38;1.20;;;;;;;;;;5018933;28;20056;-80
2022/09/08 13:05:38;;;;;;;1.38;0.90;;;;;;;;;;5001791;28;20049;-80
2022/09/08 13:08:07;;;;;;;2.63;1.15;;;;;;;;;;5016386;28;20045;-81
2022/09/08 13:10:34;;;;;;;3.78;1.00;;;;;;;;;;5026334;28;20049;-81
2022/09/08 13:13:20;;;;;;;3.58;1.10;;;;;;;;;;5024448;28;20069;-81
2022/09/08 13:15:50;;;;;;;1.48;0.82;;;;;;;;;;5018950;28;20073;-80
2022/09/08 13:18:23;;;;;;;4.55;0.80;;;;;;;;;;5000437;28;20062;-81
2022/09/08 13:20:57;;;;;;;1.75;0.95;;;;;;;;;;5019527;28;20050;-80
2022/09/08 13:23:50;;;;;;;1.42;0.60;;;;;;;;;;5001827;28;20054;-81
2022/09/08 13:26:34;;;;;;;1.55;0.70;;;;;;;;;;4991793;28;20046;-80
2022/09/08 13:29:07;;;;;;;1.65;1.00;;;;;;;;;;5013488;28;20049;-81
2022/09/08 13:31:53;;;;;;;1.23;0.60;;;;;;;;;;4997930;28;20050;-80
2022/09/08 13:34:20;;;;;;;1.73;0.63;;;;;;;;;;5014379;28;20049;-79
2022/09/08 13:36:54;;;;;;;3.25;0.80;;;;;;;;;;5015014;28;20073;-78
2022/09/08 13:39:37;;;;;;;1.85;0.70;;;;;;;;;;4995007;28;20048;-80
2022/09/08 13:42:13;;;;;;;1.88;0.73;;;;;;;;;;5014361;28;20056;-79
2022/09/08 13:44:40;;;;;;;;;;;;;;;;;;5017405;28;20072;-80
2022/09/08 13:47:06;;;;;;;1.23;0.68;;;;;;;;;;5016431;28;20239;-80
2022/09/08 13:49:51;;;;;;;2.17;0.68;;;;;;;;;;5016146;28;20125;-80
2022/09/08 13:52:34;;;;;;;2.37;0.80;;;;;;;;;;5014677;28;20050;-80
2022/09/08 13:55:15;;;;;;;2.35;0.70;;;;;;;;;;5017644;28;20292;-79
2022/09/08 13:57:48;;;;;;;1.23;0.60;;;;;;;;;;5013626;28;20057;-79
2022/09/08 14:00:17;;;;;;;2.53;0.80;;;;;;;;;;5005830;28;20723;-80
2022/09/08 14:02:44;;;;;;;5.28;0.60;;;;;;;;;;4994540;28;20058;-80
2022/09/08 14:05:14;;;;;;;2.92;0.60;;;;;;;;;;5016467;28;20064;-81
2022/09/08 14:07:44;;;;;;;1.58;0.68;;;;;;;;;;5016629;28;20061;-80
2022/09/08 14:10:10;;;;;;;1.63;0.60;;;;;;;;;;5015002;28;20050;-80
2022/09/08 14:12:48;;;;;;;0.60;0.50;;;;;;;;;;5015866;28;20092;-79
2022/09/08 14:15:19;;;;;;;2.88;0.50;;;;;;;;;;4999066;28;20056;-79
2022/09/08 14:17:49;;;;;;;1.35;0.55;;;;;;;;;;5016091;28;20053;-80
2022/09/08 14:20:20;;;;;;;1.30;0.50;;;;;;;;;;5016323;28;20042;-78
2022/09/08 14:22:49;;;;;;;1.05;0.60;;;;;;;;;;5021296;28;20050;-78
2022/09/08 14:25:28;;;;;;;2.38;0.88;;;;;;;;;;5016977;28;20410;-80
2022/09/08 14:28:16;;;;;;;2.88;0.70;;;;;;;;;;5016802;28;20061;-79
2022/09/08 14:30:42;;;;;;;3.22;0.65;;;;;;;;;;5014942;28;20049;-79
2022/09/08 14:33:09;;;;;;;2.13;0.57;;;;;;;;;;5015256;28;20074;-77
2022/09/08 14:35:40;;;;;;;1.58;0.70;;;;;;;;;;5017724;28;20045;-79
2022/09/08 14:38:15;;;;;;;0.80;0.55;;;;;;;;;;5016814;28;20093;-80
2022/09/08 14:40:44;;;;;;;2.78;0.60;;;;;;;;;;5016545;28;20422;-81
2022/09/08 14:43:29;;;;;;;0.52;0.45;;;;;;;;;;5015763;28;20061;-78
2022/09/08 14:45:55;;;;;;;2.63;0.77;;;;;;;;;;5017390;28;20046;-80
2022/09/08 14:48:24;;;;;;;0.80;0.55;;;;;;;;;;5014131;28;20080;-80
2022/09/08 14:51:03;;;;;;;0.80;0.70;;;;;;;;;;5013516;28;20046;-79
2022/09/08 14:53:33;;;;;;;0.93;0.50;;;;;;;;;;5013247;28;20050;-81
2022/09/08 14:56:02;;;;;;;0.77;0.60;;;;;;;;;;5014622;28;20054;-81
2022/09/08 14:58:28;;;;;;;1.23;0.77;;;;;;;;;;5014146;28;20069;-78
2022/09/08 15:00:59;;;;;;;1.10;0.60;;;;;;;;;;5022683;28;20049;-79
2022/09/08 15:03:33;;;;;;;1.35;0.60;;;;;;;;;;5032581;28;20073;-80
2022/09/08 15:06:00;;;;;;;2.75;0.70;;;;;;;;;;5024467;28;20112;-77
2022/09/08 15:08:28;;;;;;;1.65;0.88;;;;;;;;;;5010185;28;20061;-78
2022/09/08 15:11:05;;;;;;;1.73;0.90;;;;;;;;;;5011376;28;20065;-78
2022/09/08 15:13:32;;;;;;;1.60;0.80;;;;;;;;;;5008943;28;20056;-78